岩国 の空港の天気 - METARとTAF

岩国飛行場 ( RJOI / IWK ) - 山口県岩国市
飛行場実況気象(Metar)
観測時間05/29 07:56 JST (05/28 22:56 UTC)
風向・風速北東 4m/s
視程10km以上
天気現象
全天の8割程度の雲 雲底高度 7620m
気温21.1℃
湿度53%
気圧1008.9hPa
METARRJOI 282256Z 04007KT 10SM BKN250 21/11 A2980 RMK AO2 SLP089 T02110111
過去の天気等 Google飛行場航空写真 Wunderground天気予報

過去48時間のMETAR

飛行場予報(TAF)
発表時間: -
29日8時 JST ~ 29日10時 JST に徐々に
風向・風速南南東 5m/s
視程10km以上
少しの雲 雲底高度 7620m
29日21時 JST から
風向・風速北北東 3m/s
視程10km以上
少しの雲 雲底高度 610m
全天の4割程度の雲 雲底高度 5490m
30日3時 JST ~ 30日5時 JST に徐々に
風向・風速北北東 4m/s
視程10km以上
少しの雲 雲底高度 460m
全天の4割程度の雲 雲底高度 910m
全天の8割程度の雲 雲底高度 1520m
30日3時 JST ~ 30日6時 JST に一時的に
天気現象周辺でしゅう雨
全天の4割程度の雲 雲底高度 460m
全天の8割程度の雲 雲底高度 910m
全天を覆う雲 雲底高度 1830m
TAF RJOI 2821/2921 31006KT 9999 SCT250 QNH2975INS
BECMG 2823/2901 15009KT 9999 FEW250 QNH2966INS
FM291200 03006KT 9999 FEW020 SCT180 QNH2963INS
BECMG 2918/2920 03007KT 9999 FEW015 SCT030 BKN050 QNH2962INS
TEMPO 2918/2921 VCSH SCT015 BKN030 OVC060 T16/2821Z T27/2905Z
日本の空港のMETAR・TAFへのリンク

RJTT 東京国際空港
RJAA 新東京国際空港
RJBB 関西国際空港
RJOO 大阪空港
RJGG 中部国際空港
RJCC 新千歳空港
RJFF 福岡空港
ROAH 那覇空港


RJEC 旭川空港
RJCH 函館空港
RJCK 釧路空港
RJCM 女満別空港
RJCB 帯広空港
RJSA 青森空港
RJSS 仙台空港
RJSK 秋田空港
RJSF 福島空港
RJAH 茨城空港
RJSN 新潟空港
RJNT 富山空港
RJNK 小松飛行場
RJNS 静岡空港
RJOH 美保飛行場
RJOC 出雲空港
RJOB 岡山空港
RJOA 広島空港
RJOI 岩国飛行場
RJOT 高松空港
RJOM 松山空港
RJOK 高知空港
RJFR 北九州空港
RJFT 熊本空港
RJFU 長崎空港
RJFS 佐賀空港
RJFO 大分空港
RJFM 宮崎空港
RJFK 鹿児島空港
ROIG 石垣島空港
RJTY 横田飛行場
ROTM 普天間飛行場
RODN 嘉手納飛行場